Panama City, FL (32401)

6:34 AM CDT on April 26, 2017 (GMT -0500)
The Cove | | Change Station

Elev 15 ft 30.16 °N, 85.65 °W | Updated 0 second ago

Mostly Cloudy
Mostly Cloudy
66.6 °F
Feels Like 66.6 °F
N
0.0
Wind Variable Wind from WNW
Gusts 0.0 mph

Today
High -- | Low -- °F
--% Chance of Precip.
Yesterday
High -- | Low -- °F
Precip. -- in
Pressure 29.81 in
Visibility 10.0 miles
Clouds Scattered Clouds 3500 ft
Scattered Clouds 4600 ft
Dew Point 59 °F
Humidity 77%
Rainfall 0.00 in
Snow Depth Not available.
6:03 AM 7:17 PM
Waning Crescent, 0% visible
METAR KPAM 261056Z 16003KT 10SM SCT035 SCT046 18/15 A2980 RMK AO2A SLP094 T01770151 $
Pressure 29.81 in
Visibility 10.0 miles
Clouds Scattered Clouds 3500 ft
Scattered Clouds 4600 ft
Dew Point 59 °F
Humidity 77%
Rainfall 0.00 in
Snow Depth Not available.
6:03 AM 7:17 PM
Waning Crescent, 0% visible
METAR KPAM 261056Z 16003KT 10SM SCT035 SCT046 18/15 A2980 RMK AO2A SLP094 T01770151 $

Get Your Daily Forecast Email!

Thanks for signing up!

Be on the lookout for a verification email in your inbox.

You'll start receiving severe weather alerts in your inbox..

×

10-Day Weather Forecast

Almanac

Astronomy

Apr. 26, 2017 Rise Set
Actual Time
Civil Twilight
Nautical Twilight
Astronomical Twilight
Moon
Length of Visible Light
Length of Day
Tomorrow will be .
, % of the Moon is Illuminated

Today's Extremes

State Highs State Lows

Community

WunderPhotos

WunderBlog® & News

Nearby

Air Quality

  Air Quality AQ Index Pollutant
Not available.

Snow Depth

Station Depth Elevation

Earthquake Activity

City Distance Mag. Time & Date
Minimum magnitude displayed is 2.5.

Coastal Water Temperatures

Place Temperature

Stations

Nearby Weather Stations

Station Location Temp. Windchill Dew Point Humidity Wind Precip. Elev Updated Type
                   

Watches & Warnings

Coastal Hazard Statement
Issued: 2:54 AM CDT Apr. 26, 2017 – National Weather Service

... High rip current risk in effect from 8 am EDT /7 am CDT/ this
morning through late tonight...

The National Weather Service in Tallahassee has issued a high rip
current risk, which is in effect from 8 am EDT /7 am CDT/ this
morning through late tonight.

* Timing... through tonight and possibly through Thursday

* impacts... increased chance for dangerous rip currents

Precautionary/preparedness actions...

There is a high risk of rip currents.

Rip currents are powerful channels of water flowing quickly away
from shore. They occur most often at low spots or breaks in The
Sandbar... as well as in the vicinity of jetties and piers.

Heed the advice of lifeguards... beach patrol flags... and signs
before entering the water. If caught in a rip current do not swim
against it. Face the shore and signal for help. Float or tread
water until the current ends or until rescued.



Moore